Time;durP1;ratioP1;P1;durP2;ratioP2;P2;SDS_P1;SDS_P2;PMS_P1;PMS_P2;Temp;Humidity;BMP_temperature;BMP_pressure;BME280_temperature;BME280_humidity;BME280_pressure;Samples;Min_cycle;Max_cycle;Signal;HPM_P1;HPM_P2
2022/05/31 00:01:17;;;;;;;5.70;4.90;;;;;;;18.98;74.19;96988.47;4818134;29;20248;-73
2022/05/31 00:03:44;;;;;;;7.30;5.00;;;;;;;19.01;73.74;96999.56;4818152;29;20214;-76
2022/05/31 00:06:11;;;;;;;5.57;4.97;;;;;;;18.91;73.94;96993.38;4818248;29;20643;-74
2022/05/31 00:08:44;;;;;;;9.03;5.70;;;;;;;18.95;72.87;96989.56;4816713;29;20722;-75
2022/05/31 00:11:11;;;;;;;8.53;5.70;;;;;;;19.00;72.42;96987.38;4818229;29;20196;-75
2022/05/31 00:13:39;;;;;;;8.40;6.13;;;;;;;18.97;72.52;96995.53;4818473;29;20201;-75
2022/05/31 00:16:07;;;;;;;6.60;5.10;;;;;;;18.83;71.97;97001.03;4817984;29;20293;-76
2022/05/31 00:18:34;;;;;;;6.83;5.73;;;;;;;18.63;72.63;97007.00;4846728;29;20216;-76
2022/05/31 00:21:01;;;;;;;6.87;5.63;;;;;;;18.31;73.46;96992.91;4817945;29;20724;-72
2022/05/31 00:23:28;;;;;;;6.17;5.20;;;;;;;18.24;74.47;97010.88;4818150;29;20211;-74
2022/05/31 00:25:55;;;;;;;10.57;6.07;;;;;;;17.99;74.89;96997.97;4818139;29;20758;-75
2022/05/31 00:28:24;;;;;;;9.53;6.57;;;;;;;18.16;74.94;97012.41;4817965;29;20191;-75
2022/05/31 00:30:52;;;;;;;6.73;5.20;;;;;;;18.07;75.00;97010.53;4817990;29;20228;-74
2022/05/31 00:33:19;;;;;;;8.47;6.43;;;;;;;17.95;75.04;97011.44;4831783;29;20591;-74
2022/05/31 00:35:48;;;;;;;8.07;5.30;;;;;;;17.69;75.93;97016.84;4818018;29;20299;-74
2022/05/31 00:38:17;;;;;;;7.50;6.47;;;;;;;17.56;76.91;97021.31;4816515;29;20211;-74
2022/05/31 00:40:44;;;;;;;8.63;6.23;;;;;;;17.41;77.07;97019.81;4817642;29;20754;-75
2022/05/31 00:43:14;;;;;;;8.83;6.37;;;;;;;17.32;78.00;97014.41;4816501;29;20208;-75
2022/05/31 00:45:47;;;;;;;7.90;6.10;;;;;;;17.29;78.58;97018.06;4816367;29;20255;-76
2022/05/31 00:48:24;;;;;;;8.87;5.70;;;;;;;17.27;78.79;97022.56;4816756;29;20202;-76
2022/05/31 00:50:58;;;;;;;8.53;5.70;;;;;;;17.34;78.36;97026.44;4817678;29;20667;-75
2022/05/31 00:53:30;;;;;;;7.57;5.63;;;;;;;17.57;77.28;97025.63;4816439;29;20194;-75
2022/05/31 00:56:01;;;;;;;8.83;5.47;;;;;;;17.85;75.46;97032.25;4820296;29;20198;-75
2022/05/31 00:58:31;;;;;;;6.50;5.10;;;;;;;17.71;75.21;97037.69;4819650;29;20630;-75
2022/05/31 01:01:02;;;;;;;7.10;5.20;;;;;;;17.48;75.95;97025.41;4819715;29;20242;-76
2022/05/31 01:03:30;;;;;;;8.17;5.50;;;;;;;17.45;76.31;97021.25;4850013;29;20195;-74
2022/05/31 01:05:57;;;;;;;7.37;5.03;;;;;;;17.68;75.99;97016.97;4819784;29;20200;-75
2022/05/31 01:08:25;;;;;;;6.97;5.23;;;;;;;17.94;74.90;97025.50;4820750;29;20274;-75
2022/05/31 01:11:21;;;;;;;5.90;4.83;;;;;;;18.26;73.45;97023.91;4812705;29;20784;-76
2022/05/31 01:14:07;;;;;;;10.03;4.67;;;;;;;18.43;72.49;97026.03;4820955;29;20210;-76
2022/05/31 01:16:58;;;;;;;7.33;4.70;;;;;;;18.58;71.98;97033.59;4820500;29;20240;-75
2022/05/31 01:19:56;;;;;;;5.53;4.70;;;;;;;18.65;72.13;97029.53;4822445;29;20213;-73
2022/05/31 01:22:49;;;;;;;6.27;4.67;;;;;;;18.72;71.53;97029.91;4819233;29;20333;-75
2022/05/31 01:25:41;;;;;;;5.73;4.63;;;;;;;18.72;72.27;97039.56;4819053;29;20195;-73
2022/05/31 01:28:33;;;;;;;8.30;5.30;;;;;;;18.67;72.00;97038.13;4849704;29;20227;-73
2022/05/31 01:31:06;;;;;;;6.57;5.20;;;;;;;18.61;72.00;97033.34;4820265;29;20715;-73
2022/05/31 01:33:41;;;;;;;4.93;4.13;;;;;;;18.40;72.31;97042.03;4849675;29;20209;-73
2022/05/31 01:36:20;;;;;;;7.23;4.67;;;;;;;18.07;73.74;97049.84;4849825;29;20633;-72
2022/05/31 01:38:55;;;;;;;8.90;5.13;;;;;;;17.94;74.49;97052.53;4820279;29;20673;-72
2022/05/31 01:41:41;;;;;;;8.10;5.17;;;;;;;17.87;74.73;97041.69;4849524;29;20220;-72
2022/05/31 01:44:13;;;;;;;6.80;5.53;;;;;;;17.88;74.80;97048.59;4820217;29;20202;-72
2022/05/31 01:46:41;;;;;;;5.57;5.00;;;;;;;17.61;76.49;97050.63;4849394;29;20200;-73
2022/05/31 01:49:12;;;;;;;6.70;5.57;;;;;;;17.44;77.42;97055.38;4820113;29;20289;-73
2022/05/31 01:51:41;;;;;;;8.63;5.37;;;;;;;17.19;78.67;97052.91;4819842;29;20191;-73
2022/05/31 01:54:12;;;;;;;7.43;5.63;;;;;;;17.13;79.73;97059.38;4834154;29;20226;-73
2022/05/31 01:56:41;;;;;;;7.60;6.00;;;;;;;17.09;79.98;97058.78;4818425;29;20192;-73
2022/05/31 01:59:09;;;;;;;8.27;5.93;;;;;;;16.90;80.39;97050.56;4849447;29;20668;-73
2022/05/31 02:01:39;;;;;;;8.70;5.37;;;;;;;17.09;80.14;97068.41;4818653;29;20233;-74
2022/05/31 02:04:07;;;;;;;8.43;7.10;;;;;;;17.12;80.25;97072.59;4820060;29;20566;-73
2022/05/31 02:06:38;;;;;;;10.10;7.00;;;;;;;17.08;79.90;97067.56;4849166;29;20217;-72
2022/05/31 02:09:10;;;;;;;12.20;6.53;;;;;;;16.70;81.45;97058.97;4849131;29;20203;-72
2022/05/31 02:11:40;;;;;;;11.83;6.90;;;;;;;16.65;82.06;97061.06;4818444;29;20198;-74
2022/05/31 02:14:17;;;;;;;7.30;6.10;;;;;;;16.58;82.57;97072.06;4818832;29;20198;-75
2022/05/31 02:16:45;;;;;;;9.17;6.10;;;;;;;16.55;83.21;97065.25;4848812;29;20238;-78
2022/05/31 02:19:33;;;;;;;8.93;6.73;;;;;;;16.45;82.71;97065.94;4819863;29;20677;-78
2022/05/31 02:22:14;;;;;;;9.17;7.27;;;;;;;16.54;81.82;97070.59;4849018;29;20308;-75
2022/05/31 02:24:42;;;;;;;7.90;6.50;;;;;;;16.57;81.92;97073.00;4833400;29;20202;-75
2022/05/31 02:27:10;;;;;;;9.37;6.53;;;;;;;16.78;80.96;97063.66;4848982;29;20217;-75
2022/05/31 02:29:41;;;;;;;7.60;5.97;;;;;;;16.99;79.77;97070.00;4848943;29;20197;-75
2022/05/31 02:32:10;;;;;;;9.10;6.10;;;;;;;17.27;78.54;97079.34;4848726;29;20194;-76
2022/05/31 02:34:42;;;;;;;12.30;7.07;;;;;;;17.48;77.41;97078.63;4819654;29;20203;-74
2022/05/31 02:37:10;;;;;;;8.97;6.17;;;;;;;17.27;77.63;97084.59;4848699;29;20611;-76
2022/05/31 02:39:39;;;;;;;13.13;7.20;;;;;;;16.93;79.32;97075.66;4848554;29;20321;-74
2022/05/31 02:42:08;;;;;;;8.13;6.37;;;;;;;16.69;80.55;97083.44;4817905;29;20302;-75
2022/05/31 02:44:36;;;;;;;9.50;7.30;;;;;;;16.51;81.33;97081.25;4819328;29;20590;-75
2022/05/31 02:47:04;;;;;;;11.90;7.47;;;;;;;16.54;82.00;97086.28;4848440;29;20205;-75
2022/05/31 02:49:31;;;;;;;9.83;6.27;;;;;;;16.35;82.81;97072.75;4848666;29;20217;-76
2022/05/31 02:51:59;;;;;;;11.20;7.33;;;;;;;16.30;83.57;97101.81;4817947;29;20255;-77
2022/05/31 02:54:27;;;;;;;9.27;6.73;;;;;;;16.34;84.00;97092.84;4848167;29;20705;-75
2022/05/31 02:57:13;;;;;;;9.00;6.90;;;;;;;16.28;83.62;97080.16;4817716;29;20211;-75
2022/05/31 02:59:58;;;;;;;16.33;7.17;;;;;;;16.28;83.36;97088.00;4819289;29;20198;-76
2022/05/31 03:02:55;;;;;;;8.67;5.97;;;;;;;16.39;82.84;97087.28;4832680;29;20743;-75
2022/05/31 03:05:40;;;;;;;14.00;6.70;;;;;;;16.70;81.41;97092.13;4819047;29;20198;-74
2022/05/31 03:08:29;;;;;;;10.73;6.47;;;;;;;17.02;79.71;97098.56;4817901;29;20573;-76
2022/05/31 03:11:14;;;;;;;13.13;6.93;;;;;;;16.74;80.15;97099.66;4817562;29;20230;-75
2022/05/31 03:13:43;;;;;;;8.43;6.40;;;;;;;16.64;80.74;97090.78;4832670;29;20198;-77
2022/05/31 03:16:12;;;;;;;12.73;7.53;;;;;;;16.54;81.15;97094.97;4847548;29;20318;-74
2022/05/31 03:18:43;;;;;;;8.43;6.40;;;;;;;16.58;81.18;97095.59;4817153;29;20195;-73
2022/05/31 03:21:21;;;;;;;14.00;7.33;;;;;;;17.00;79.82;97095.22;4848047;29;20247;-74
2022/05/31 03:23:56;;;;;;;7.63;5.77;;;;;;;17.35;77.68;97096.16;4848403;29;20680;-76
2022/05/31 03:26:26;;;;;;;11.03;6.60;;;;;;;17.71;76.16;97104.00;4818864;29;20220;-73
2022/05/31 03:28:53;;;;;;;6.87;5.20;;;;;;;17.95;75.17;97103.97;4818783;29;20607;-73
2022/05/31 03:31:21;;;;;;;8.70;6.30;;;;;;;18.07;74.34;97105.72;4818567;29;20634;-75
2022/05/31 03:33:48;;;;;;;10.50;7.20;;;;;;;17.91;74.64;97112.22;4847448;29;20197;-75
2022/05/31 03:36:15;;;;;;;7.43;6.30;;;;;;;17.48;76.19;97112.66;4818552;29;20706;-75
2022/05/31 03:38:48;;;;;;;9.03;5.93;;;;;;;16.89;77.92;97119.53;4801926;29;20227;-74
2022/05/31 03:41:15;;;;;;;10.83;6.30;;;;;;;16.84;78.19;97123.38;4847499;29;20695;-75
2022/05/31 03:43:45;;;;;;;12.23;7.03;;;;;;;16.90;78.68;97125.56;4847608;29;20204;-75
2022/05/31 03:46:38;;;;;;;16.87;8.23;;;;;;;17.26;77.10;97101.22;4817349;29;20215;-73
2022/05/31 03:49:24;;;;;;;11.97;8.60;;;;;;;17.85;75.19;97132.66;4818409;29;20273;-75
2022/05/31 03:51:55;;;;;;;10.87;6.67;;;;;;;18.13;74.71;97135.88;4816965;29;20200;-73
2022/05/31 03:54:33;;;;;;;7.93;6.97;;;;;;;18.28;74.08;97137.34;4847767;29;20696;-74
2022/05/31 03:57:16;;;;;;;11.10;6.50;;;;;;;18.12;74.92;97135.03;4818315;29;20286;-73
2022/05/31 03:59:49;;;;;;;9.53;5.90;;;;;;;18.25;73.73;97135.78;4847460;29;20634;-74
2022/05/31 04:02:20;;;;;;;12.37;6.30;;;;;;;18.13;74.65;97134.09;4801289;29;20277;-74
2022/05/31 04:04:47;;;;;;;6.60;5.50;;;;;;;17.79;76.35;97132.25;4801879;29;20204;-77
2022/05/31 04:07:14;;;;;;;7.93;6.03;;;;;;;18.23;75.31;97129.84;4847648;29;20211;-76
2022/05/31 04:09:41;;;;;;;9.77;6.50;;;;;;;18.59;74.72;97136.72;4816527;29;20617;-75
2022/05/31 04:12:10;;;;;;;11.53;5.67;;;;;;;19.00;73.20;97133.56;4816639;29;20295;-73
2022/05/31 04:14:56;;;;;;;7.53;5.30;;;;;;;19.38;71.43;97124.38;4817800;29;20566;-72
2022/05/31 04:17:23;;;;;;;6.27;5.50;;;;;;;19.18;72.19;97132.13;4846932;29;20300;-74
2022/05/31 04:19:50;;;;;;;7.37;5.80;;;;;;;19.43;71.70;97137.16;4816821;29;20231;-75
2022/05/31 04:22:17;;;;;;;8.53;5.53;;;;;;;19.55;70.99;97135.31;4847497;29;20253;-75
2022/05/31 04:24:45;;;;;;;8.00;5.57;;;;;;;19.70;70.61;97134.09;4816764;29;20197;-75
2022/05/31 04:27:30;;;;;;;7.17;5.40;;;;;;;19.84;70.19;97136.44;4818047;29;20214;-76
2022/05/31 04:30:16;;;;;;;5.13;4.60;;;;;;;20.12;69.00;97135.84;4818242;29;20208;-76
2022/05/31 04:33:03;;;;;;;7.00;5.37;;;;;;;20.34;68.07;97140.22;4821454;29;20198;-74
2022/05/31 04:35:35;;;;;;;8.63;5.97;;;;;;;20.02;68.41;97087.59;4820356;29;20379;-76
2022/05/31 04:38:02;;;;;;;9.23;6.10;;;;;;;20.88;67.62;97146.91;4819957;29;20701;-76
2022/05/31 04:40:41;;;;;;;7.30;5.20;;;;;;;21.42;65.09;97146.63;4820022;29;20918;-75
2022/05/31 04:43:28;;;;;;;7.17;5.13;;;;;;;21.74;63.38;97157.00;4820812;29;20217;-75
2022/05/31 04:46:15;;;;;;;7.53;5.87;;;;;;;21.81;63.44;97152.81;4819696;29;20688;-75
2022/05/31 04:49:02;;;;;;;6.97;5.93;;;;;;;22.17;62.53;97152.22;4820723;29;20615;-74
2022/05/31 04:51:32;;;;;;;9.43;8.47;;;;;;;22.48;61.59;97153.69;4819686;29;20196;-76
2022/05/31 04:54:05;;;;;;;8.13;5.63;;;;;;;22.24;61.70;97161.22;4819726;29;20195;-75
2022/05/31 04:56:52;;;;;;;6.47;5.53;;;;;;;22.40;61.87;97156.22;4821250;29;20275;-76
2022/05/31 04:59:20;;;;;;;11.57;6.23;;;;;;;22.28;61.48;97123.03;4820109;29;20207;-74
2022/05/31 05:01:47;;;;;;;8.43;5.47;;;;;;;22.34;61.39;97154.13;4819452;29;20232;-76
2022/05/31 05:04:24;;;;;;;8.77;5.13;;;;;;;22.39;61.41;97138.72;4819479;29;20681;-73
2022/05/31 05:06:57;;;;;;;8.17;5.17;;;;;;;23.00;60.23;97141.81;4819733;29;20326;-74
2022/05/31 05:09:24;;;;;;;8.40;5.00;;;;;;;23.00;59.96;97148.94;4819844;29;20198;-75
2022/05/31 05:12:10;;;;;;;6.80;4.70;;;;;;;23.02;58.03;97146.97;4819830;29;20671;-75
2022/05/31 05:14:42;;;;;;;6.37;4.53;;;;;;;23.20;57.28;97155.81;4822088;29;20547;-75
2022/05/31 05:17:14;;;;;;;8.07;5.10;;;;;;;23.36;56.99;97146.31;4827158;29;20245;-74
2022/05/31 05:19:45;;;;;;;10.23;5.40;;;;;;;23.42;56.90;97151.00;4812273;29;20236;-74
2022/05/31 05:22:12;;;;;;;25.00;7.50;;;;;;;23.72;56.42;97147.22;4829850;29;20254;-76
2022/05/31 05:24:40;;;;;;;12.30;5.67;;;;;;;24.00;55.71;97153.31;4829628;29;20671;-74
2022/05/31 05:27:16;;;;;;;6.47;5.20;;;;;;;23.97;54.60;97146.50;4851372;29;20210;-76
2022/05/31 05:33:15;;;;;;;7.10;4.97;;;;;;;23.97;53.72;97146.50;4820723;29;20199;-76
2022/05/31 05:35:58;;;;;;;7.17;5.33;;;;;;;24.48;53.57;97147.66;4819446;29;20215;-76
2022/05/31 05:38:26;;;;;;;11.53;5.80;;;;;;;24.76;51.97;97143.94;4819285;29;20631;-76
2022/05/31 05:41:12;;;;;;;7.33;5.13;;;;;;;24.84;51.89;97147.47;4836133;29;20701;-74
2022/05/31 05:44:05;;;;;;;11.20;5.33;;;;;;;24.94;51.27;97142.06;4820363;29;20204;-77
2022/05/31 05:46:32;;;;;;;7.27;5.37;;;;;;;24.69;52.15;97145.53;4819059;29;20201;-77
2022/05/31 05:49:04;;;;;;;6.83;5.20;;;;;;;24.95;51.69;97143.72;4803989;29;20294;-77
2022/05/31 05:51:33;;;;;;;8.80;5.30;;;;;;;25.15;52.17;97149.63;4818944;29;20266;-76
2022/05/31 05:54:19;;;;;;;9.17;4.60;;;;;;;25.39;51.32;97141.81;4820202;29;20678;-76
2022/05/31 05:57:05;;;;;;;7.90;4.73;;;;;;;25.48;51.31;97144.38;4819755;29;20219;-77
2022/05/31 05:59:50;;;;;;;11.40;7.47;;;;;;;25.61;50.70;97154.53;4820018;29;20214;-75
2022/05/31 06:02:41;;;;;;;5.93;4.77;;;;;;;25.79;49.23;97150.78;4819159;29;20638;-77
2022/05/31 06:05:46;;;;;;;8.17;4.73;;;;;;;25.70;49.36;97143.78;4818432;29;20202;-77
2022/05/31 06:08:21;;;;;;;9.97;4.73;;;;;;;25.55;49.36;97150.72;4818503;29;20193;-74
2022/05/31 06:11:05;;;;;;;8.60;4.87;;;;;;;25.61;50.02;97144.75;4819569;29;20201;-76
2022/05/31 06:13:54;;;;;;;7.27;5.17;;;;;;;25.53;49.93;97144.69;4818019;29;20206;-76
2022/05/31 06:16:26;;;;;;;6.93;4.33;;;;;;;25.76;50.20;97147.63;4833280;29;20301;-78
2022/05/31 06:19:16;;;;;;;9.23;5.40;;;;;;;25.94;49.88;97144.84;4819575;29;20201;-77
2022/05/31 06:21:45;;;;;;;7.87;5.30;;;;;;;26.11;50.08;97138.63;4817676;29;20210;-74
2022/05/31 06:24:30;;;;;;;7.63;4.87;;;;;;;25.99;50.01;97140.69;4818050;29;20202;-77
2022/05/31 06:27:08;;;;;;;8.13;4.70;;;;;;;25.79;51.17;97134.03;4848231;29;20276;-76
2022/05/31 06:29:36;;;;;;;10.77;5.03;;;;;;;25.96;49.98;97130.44;4848214;29;20721;-76
2022/05/31 06:32:04;;;;;;;11.90;4.97;;;;;;;25.97;49.47;97129.41;4818154;29;20190;-78
2022/05/31 06:34:39;;;;;;;10.93;4.37;;;;;;;25.95;49.88;97127.91;4818049;29;20660;-77
2022/05/31 06:37:41;;;;;;;8.57;4.67;;;;;;;25.92;50.05;97138.88;4813800;29;20779;-77
2022/05/31 06:40:09;;;;;;;10.77;5.60;;;;;;;26.17;50.12;97135.31;4817794;29;20209;-77
2022/05/31 06:43:02;;;;;;;7.17;4.80;;;;;;;26.23;49.46;97132.00;4825520;29;20233;-77
2022/05/31 06:46:11;;;;;;;5.97;4.30;;;;;;;26.58;48.41;97129.81;4816120;29;20206;-77
2022/05/31 06:48:57;;;;;;;5.77;4.53;;;;;;;26.45;48.62;97121.53;4816173;29;20679;-78
2022/05/31 06:57:40;;;;;;;7.07;4.40;;;;;;;26.79;47.66;97129.34;4818428;29;20190;-76
2022/05/31 07:00:18;;;;;;;7.50;4.50;;;;;;;26.66;47.27;97114.88;4831861;29;20281;-77
2022/05/31 07:02:49;;;;;;;7.47;4.20;;;;;;;26.26;48.05;97126.34;4816894;29;20252;-75
2022/05/31 07:05:18;;;;;;;7.87;4.07;;;;;;;25.87;49.06;97125.25;4816866;29;20300;-75
2022/05/31 07:07:46;;;;;;;5.37;4.40;;;;;;;25.80;48.79;97119.78;4818632;29;20699;-77
2022/05/31 07:10:21;;;;;;;5.40;3.90;;;;;;;25.53;49.47;97117.38;4818985;29;20202;-75
2022/05/31 07:13:24;;;;;;;7.97;5.17;;;;;;;25.82;49.64;97123.91;4779730;30;20231;-77
2022/05/31 07:16:04;;;;;;;8.57;4.57;;;;;;;25.91;49.48;97127.41;4813607;29;20269;-77
2022/05/31 07:18:58;;;;;;;6.97;4.23;;;;;;;26.24;48.65;97118.53;4818292;29;20201;-78
2022/05/31 07:21:30;;;;;;;8.87;4.63;;;;;;;26.58;48.37;97121.03;4817222;29;20194;-75
2022/05/31 07:23:58;;;;;;;5.97;5.40;;;;;;;26.90;47.96;97126.34;4801626;29;20666;-77
2022/05/31 07:26:28;;;;;;;7.30;5.63;;;;;;;26.76;47.77;97121.72;4816825;29;20194;-76
2022/05/31 07:29:06;;;;;;;8.70;4.43;;;;;;;26.65;48.16;97121.22;4817134;29;20242;-77
2022/05/31 07:31:36;;;;;;;6.60;5.27;;;;;;;26.49;48.74;97122.03;4818359;29;20266;-76
2022/05/31 07:34:25;;;;;;;6.30;4.27;;;;;;;26.50;48.62;97113.88;4804575;29;20259;-77
2022/05/31 07:36:53;;;;;;;7.23;4.40;;;;;;;26.53;49.21;97113.56;4818354;29;20556;-75
2022/05/31 07:39:23;;;;;;;7.03;4.17;;;;;;;26.66;48.28;97112.22;4831799;29;20753;-75
2022/05/31 07:41:52;;;;;;;6.40;4.90;;;;;;;26.92;47.98;97115.53;4816412;29;20206;-74
2022/05/31 07:44:22;;;;;;;9.60;4.73;;;;;;;27.29;47.26;97119.25;4816518;29;20308;-76
2022/05/31 07:46:51;;;;;;;8.20;5.27;;;;;;;27.03;47.08;97110.69;4831931;29;20202;-78
2022/05/31 07:49:35;;;;;;;7.17;4.73;;;;;;;27.36;46.92;97112.28;4817206;29;20613;-75
2022/05/31 07:52:14;;;;;;;6.90;5.10;;;;;;;27.36;46.32;97111.44;4803099;29;20235;-76
2022/05/31 07:54:54;;;;;;;8.77;4.80;;;;;;;27.38;46.09;97114.75;4847060;29;20569;-78
2022/05/31 08:01:10;;;;;;;6.77;4.90;;;;;;;26.92;47.30;97108.38;4817819;29;20315;-75
2022/05/31 08:03:38;;;;;;;7.40;4.67;;;;;;;27.34;46.28;97108.97;4816420;29;20598;-76
2022/05/31 08:06:09;;;;;;;7.47;4.77;;;;;;;27.57;46.75;97110.84;4817707;29;20209;-77
2022/05/31 08:08:37;;;;;;;9.07;4.60;;;;;;;27.45;46.75;97109.59;4846969;29;20305;-74
2022/05/31 08:11:12;;;;;;;8.07;5.77;;;;;;;27.76;45.83;97108.59;4817622;29;20362;-78
2022/05/31 08:13:40;;;;;;;9.90;5.67;;;;;;;28.01;45.41;97106.63;4817465;29;20224;-75
2022/05/31 08:16:10;;;;;;;8.33;4.70;;;;;;;28.17;44.66;97115.34;4817359;29;20770;-78
2022/05/31 08:18:40;;;;;;;6.97;4.80;;;;;;;28.39;43.66;97103.03;4816409;29;20606;-76
2022/05/31 08:21:10;;;;;;;8.33;3.90;;;;;;;28.26;43.55;97117.94;4816156;29;20210;-76
2022/05/31 08:23:38;;;;;;;8.63;4.23;;;;;;;27.94;43.63;97111.81;4817584;29;20325;-76
2022/05/31 08:26:06;;;;;;;6.83;4.10;;;;;;;27.73;44.49;97108.94;4847042;29;20212;-76
2022/05/31 08:28:34;;;;;;;8.53;4.33;;;;;;;27.87;43.88;97099.38;4817559;29;20301;-76
2022/05/31 08:31:05;;;;;;;5.50;4.43;;;;;;;28.26;42.90;97100.13;4801074;29;20213;-77
2022/05/31 08:33:33;;;;;;;5.17;4.10;;;;;;;28.54;42.01;97103.06;4817612;29;20674;-77
2022/05/31 08:36:00;;;;;;;7.00;3.73;;;;;;;28.48;41.90;97099.28;4817537;29;20199;-77
2022/05/31 08:38:30;;;;;;;5.43;3.80;;;;;;;28.51;41.95;97098.09;4800561;29;20616;-78
2022/05/31 08:41:03;;;;;;;8.70;3.60;;;;;;;28.55;41.07;97099.38;4816018;29;20199;-75
2022/05/31 08:43:46;;;;;;;4.67;3.30;;;;;;;28.37;40.86;97101.53;4817340;29;20221;-76
2022/05/31 08:46:27;;;;;;;6.63;4.00;;;;;;;27.93;41.35;97088.00;4816078;29;20310;-77
2022/05/31 08:49:17;;;;;;;5.77;3.50;;;;;;;27.90;41.95;97099.03;4816980;29;20205;-77
2022/05/31 08:52:04;;;;;;;4.50;3.43;;;;;;;28.01;40.91;97099.47;4816799;29;20198;-78
2022/05/31 08:57:48;;;;;;;8.37;3.83;;;;;;;28.23;41.12;97105.00;4800360;29;20221;-77
2022/05/31 09:00:20;;;;;;;7.40;3.33;;;;;;;28.09;41.04;97101.25;4815858;29;20213;-77
2022/05/31 09:03:15;;;;;;;7.53;3.67;;;;;;;28.14;40.35;97093.56;4846283;29;20294;-78
2022/05/31 09:05:52;;;;;;;7.70;3.77;;;;;;;28.28;40.67;97103.44;4817074;29;20203;-77
2022/05/31 09:08:28;;;;;;;4.00;3.30;;;;;;;28.34;39.87;97092.06;4817234;29;20197;-77
2022/05/31 09:11:11;;;;;;;9.53;4.33;;;;;;;28.67;39.70;97092.63;4817458;29;20953;-78
2022/05/31 09:13:53;;;;;;;6.37;4.20;;;;;;;28.96;39.16;97093.53;4816106;29;20267;-78
2022/05/31 09:16:54;;;;;;;8.87;4.57;;;;;;;28.96;39.05;97090.84;4819090;29;20231;-78
2022/05/31 09:19:30;;;;;;;10.43;4.63;;;;;;;29.08;38.98;97072.53;4818501;29;20202;-76
2022/05/31 09:22:01;;;;;;;7.07;3.50;;;;;;;29.19;38.59;97073.94;4820287;29;20265;-76
2022/05/31 09:24:29;;;;;;;5.33;3.80;;;;;;;29.30;38.94;97060.16;4820220;29;20247;-77
2022/05/31 09:27:05;;;;;;;8.20;4.70;;;;;;;29.46;38.26;97089.31;4820229;29;20261;-76
2022/05/31 09:29:52;;;;;;;4.77;3.60;;;;;;;29.56;37.96;97082.66;4819931;29;20200;-75
2022/05/31 09:32:46;;;;;;;6.30;3.43;;;;;;;29.31;39.20;97080.47;4819062;29;20206;-76
2022/05/31 09:35:38;;;;;;;7.40;3.87;;;;;;;29.34;39.79;97074.78;4818830;29;20292;-76
2022/05/31 09:38:43;;;;;;;6.50;4.33;;;;;;;29.54;39.99;97065.16;4818507;29;20250;-74
2022/05/31 09:41:21;;;;;;;4.83;3.53;;;;;;;29.54;39.41;97075.84;4819959;29;20207;-76
2022/05/31 09:44:13;;;;;;;7.80;4.30;;;;;;;29.48;39.14;97071.25;4818369;29;20232;-75
2022/05/31 09:47:17;;;;;;;10.43;4.17;;;;;;;28.94;38.92;97066.19;4819946;29;20607;-76
2022/05/31 09:49:50;;;;;;;9.03;4.10;;;;;;;28.81;39.49;97063.34;4820035;29;20545;-77
2022/05/31 09:52:30;;;;;;;6.30;4.07;;;;;;;28.94;39.72;97063.53;4819383;29;20193;-77
2022/05/31 09:58:23;;;;;;;5.63;3.67;;;;;;;29.35;39.12;97071.06;4819516;29;20273;-74
2022/05/31 10:01:44;;;;;;;7.87;3.70;;;;;;;29.08;38.70;97061.06;4819579;29;20237;-75
2022/05/31 10:04:27;;;;;;;7.03;3.97;;;;;;;28.96;39.04;97061.50;4818173;29;20262;-77
2022/05/31 10:07:03;;;;;;;7.90;4.40;;;;;;;28.67;38.88;97060.66;4818280;29;20221;-76
2022/05/31 10:09:34;;;;;;;9.33;4.10;;;;;;;28.68;39.34;97065.81;4819470;29;20225;-75
2022/05/31 10:12:26;;;;;;;6.87;4.13;;;;;;;28.39;39.30;97046.25;4819433;29;20739;-75
2022/05/31 10:14:55;;;;;;;6.80;3.70;;;;;;;28.44;39.77;97046.53;4817970;29;20198;-75
2022/05/31 10:17:43;;;;;;;8.20;3.87;;;;;;;28.29;39.92;97051.84;4818908;29;20226;-74
2022/05/31 10:20:23;;;;;;;8.47;3.97;;;;;;;28.08;39.57;97049.00;4817811;29;20200;-74
2022/05/31 10:22:52;;;;;;;7.97;4.03;;;;;;;27.85;40.56;97054.28;4819390;29;20289;-73
2022/05/31 10:25:56;;;;;;;14.23;5.10;;;;;;;28.03;40.20;97049.53;4818313;29;20214;-74
2022/05/31 10:28:30;;;;;;;11.90;5.47;;;;;;;28.06;40.57;97043.88;4818125;29;20292;-73
2022/05/31 10:31:14;;;;;;;10.13;4.43;;;;;;;27.83;40.71;97058.13;4818803;29;20193;-74
2022/05/31 10:33:57;;;;;;;22.90;11.50;;;;;;;27.68;41.65;97057.22;4817842;29;20627;-74
2022/05/31 10:36:27;;;;;;;11.40;3.53;;;;;;;26.56;48.45;97075.22;4819005;29;20197;-74
2022/05/31 10:39:06;;;;;;;36.97;6.80;;;;;;;20.30;96.03;97218.53;4847814;29;20203;-77
2022/05/31 10:41:35;;;;;;;16.20;6.17;;;;;;;-141.69;100.00;56212.34;4802417;29;20212;-76
2022/05/31 10:44:30;;;;;;;7.33;4.07;;;;;;;-141.69;100.00;56212.34;4818530;29;20229;-72
2022/05/31 10:47:11;;;;;;;7.20;4.07;;;;;;;-141.69;100.00;56212.34;4818966;29;20208;-71
2022/05/31 10:49:40;;;;;;;9.70;4.77;;;;;;;-141.69;100.00;56212.34;4803151;29;20201;-73
2022/05/31 10:52:43;;;;;;;9.83;4.93;;;;;;;-141.69;100.00;56212.34;4787104;29;20686;-76
2022/05/31 10:55:23;;;;;;;12.37;5.20;;;;;;;-141.69;100.00;56212.34;4817598;29;20201;-76
2022/05/31 10:58:02;;;;;;;10.37;5.57;;;;;;;-141.69;100.00;56212.34;4818617;29;20212;-75
2022/05/31 11:00:44;;;;;;;9.30;6.30;;;;;;;-141.69;100.00;56212.34;4818778;29;20590;-77
2022/05/31 11:03:27;;;;;;;9.10;4.50;;;;;;;-141.69;100.00;56212.34;4818504;29;20313;-73
2022/05/31 11:06:22;;;;;;;9.10;4.37;;;;;;;-141.69;100.00;56212.34;4817120;29;20293;-74
2022/05/31 11:12:10;;;;;;;12.43;5.97;;;;;;;-141.69;100.00;56212.34;4818844;29;20198;-73
2022/05/31 11:14:55;;;;;;;13.23;5.20;;;;;;;-141.69;100.00;56212.34;4802131;29;20213;-73
2022/05/31 11:18:12;;;;;;;12.00;5.17;;;;;;;-141.69;100.00;56212.34;4816827;29;20246;-75
2022/05/31 11:21:01;;;;;;;8.97;4.47;;;;;;;-141.69;100.00;56212.34;4816860;29;20191;-74
2022/05/31 11:24:08;;;;;;;8.40;4.83;;;;;;;-141.69;100.00;56212.34;4816996;29;20230;-74
2022/05/31 11:26:53;;;;;;;9.47;4.80;;;;;;;-141.69;100.00;56212.34;4814642;29;20210;-75
2022/05/31 11:30:02;;;;;;;8.17;4.70;;;;;;;-141.69;100.00;56212.34;4819230;29;20202;-72
2022/05/31 11:32:54;;;;;;;8.53;5.53;;;;;;;-141.69;100.00;56212.34;4818796;29;20222;-73
2022/05/31 11:35:43;;;;;;;9.97;5.73;;;;;;;-141.69;100.00;56212.34;4817164;29;20195;-73
2022/05/31 11:38:33;;;;;;;14.90;7.07;;;;;;;-141.69;100.00;56212.34;4816953;29;20275;-75
2022/05/31 11:41:25;;;;;;;10.60;5.40;;;;;;;-141.69;100.00;56212.34;4817197;29;20294;-75
2022/05/31 11:44:04;;;;;;;14.27;6.03;;;;;;;-141.69;100.00;56212.34;4801875;29;20237;-75
2022/05/31 11:46:47;;;;;;;8.23;5.80;;;;;;;-141.69;100.00;56212.34;4818382;29;20253;-74
2022/05/31 11:49:48;;;;;;;8.63;5.50;;;;;;;-141.69;100.00;56212.34;4818026;29;20248;-75
2022/05/31 11:52:30;;;;;;;7.77;5.00;;;;;;;-141.69;100.00;56212.34;4816870;29;20219;-73
2022/05/31 11:57:59;;;;;;;8.27;5.63;;;;;;;-141.69;100.00;56212.34;4847454;29;20228;-72
2022/05/31 12:00:38;;;;;;;9.30;4.90;;;;;;;-141.69;100.00;56212.34;4817023;29;20205;-76
2022/05/31 12:03:17;;;;;;;7.67;5.53;;;;;;;-141.69;100.00;56212.34;4847391;29;20208;-74
2022/05/31 12:05:50;;;;;;;11.47;6.47;;;;;;;-141.69;100.00;56212.34;4818220;29;20651;-74
2022/05/31 12:08:34;;;;;;;7.87;4.40;;;;;;;-141.69;100.00;56212.34;4818494;29;20246;-75
2022/05/31 12:11:17;;;;;;;10.93;6.20;;;;;;;-141.69;100.00;56212.34;4818350;29;20205;-74
2022/05/31 12:13:45;;;;;;;6.23;4.63;;;;;;;-141.69;100.00;56212.34;4818382;29;20196;-75
2022/05/31 12:16:13;;;;;;;8.10;5.57;;;;;;;-141.69;100.00;56212.34;4818092;29;20239;-74
2022/05/31 12:18:46;;;;;;;11.33;6.33;;;;;;;-141.69;100.00;56212.34;4816431;29;20254;-75
2022/05/31 12:21:29;;;;;;;9.43;5.97;;;;;;;-141.69;100.00;56212.34;4817527;29;20203;-74
2022/05/31 12:24:09;;;;;;;9.00;5.63;;;;;;;-141.69;100.00;56212.34;4817899;29;20233;-74
2022/05/31 12:26:45;;;;;;;7.87;5.10;;;;;;;-141.69;100.00;56212.34;4816295;29;20195;-74
2022/05/31 12:29:27;;;;;;;7.73;5.70;;;;;;;-141.69;100.00;56212.34;4818055;29;20192;-75
2022/05/31 12:32:33;;;;;;;7.13;4.70;;;;;;;-141.69;100.00;56212.34;4818238;29;20221;-73
2022/05/31 12:35:03;;;;;;;8.30;5.57;;;;;;;-141.69;100.00;56212.34;4814449;29;20719;-74
2022/05/31 12:38:03;;;;;;;6.50;4.87;;;;;;;-141.69;100.00;56212.34;4846473;29;20191;-75
2022/05/31 12:40:33;;;;;;;5.97;4.83;;;;;;;-141.69;100.00;56212.34;4831553;29;20258;-73
2022/05/31 12:43:05;;;;;;;8.80;5.10;;;;;;;-141.69;100.00;56212.34;4818028;29;20195;-74